createdAt,value
2022-12-17T00:02:08.199Z,101300.41
2022-12-17T00:04:53.668Z,101297.69
2022-12-17T00:07:39.394Z,101297.50
2022-12-17T00:10:25.561Z,101286.91
2022-12-17T00:13:12.297Z,101293.03
2022-12-17T00:15:57.600Z,101300.47
2022-12-17T00:18:51.485Z,101305.13
2022-12-17T00:22:23.953Z,101309.88
2022-12-17T00:25:15.379Z,101317.78
2022-12-17T00:28:00.794Z,101324.34
2022-12-17T00:30:47.547Z,101323.31
2022-12-17T00:33:33.165Z,101337.94
2022-12-17T00:36:28.193Z,101337.66
2022-12-17T00:39:14.584Z,101334.97
2022-12-17T00:41:59.035Z,101343.34
2022-12-17T00:44:44.458Z,101347.81
2022-12-17T00:47:30.961Z,101343.91
2022-12-17T00:50:16.300Z,101346.03
2022-12-17T00:53:03.140Z,101342.88
2022-12-17T00:55:48.416Z,101341.66
2022-12-17T00:58:34.012Z,101338.47
2022-12-17T01:01:19.181Z,101340.72
2022-12-17T01:04:06.190Z,101352.47
2022-12-17T01:06:52.006Z,101347.03
2022-12-17T01:09:38.582Z,101353.47
2022-12-17T01:12:25.170Z,101357.75
2022-12-17T01:15:11.125Z,101371.34
2022-12-17T01:17:56.381Z,101367.34
2022-12-17T01:20:45.518Z,101365.56
2022-12-17T01:23:31.114Z,101360.06
2022-12-17T01:26:16.637Z,101367.81
2022-12-17T01:29:02.005Z,101368.50
2022-12-17T01:31:47.385Z,101375.84
2022-12-17T01:34:32.900Z,101375.53
2022-12-17T01:37:19.319Z,101382.16
2022-12-17T01:40:04.169Z,101386.28
2022-12-17T01:42:56.415Z,101380.38
2022-12-17T01:45:41.882Z,101384.47
2022-12-17T01:48:29.968Z,101381.75
2022-12-17T01:51:15.447Z,101384.84
2022-12-17T01:54:05.568Z,101391.25
2022-12-17T01:56:51.536Z,101393.78
2022-12-17T01:59:39.202Z,101387.59
2022-12-17T02:02:24.668Z,101387.78
2022-12-17T02:05:09.883Z,101392.47
2022-12-17T02:08:05.820Z,101393.31
2022-12-17T02:10:58.484Z,101394.50
2022-12-17T02:13:49.614Z,101399.88
2022-12-17T02:16:38.956Z,101402.63
2022-12-17T02:19:34.808Z,101402.63
2022-12-17T02:22:26.743Z,101401.09
2022-12-17T02:25:16.077Z,101395.88
2022-12-17T02:28:17.098Z,101403.53
2022-12-17T02:31:02.458Z,101396.41
2022-12-17T02:33:47.495Z,101403.91
2022-12-17T02:36:32.926Z,101404.13
2022-12-17T02:39:17.942Z,101407.00
2022-12-17T02:42:07.774Z,101401.03
2022-12-17T02:44:57.773Z,101402.28
2022-12-17T02:47:43.782Z,101404.16
2022-12-17T02:50:30.507Z,101407.13
2022-12-17T02:53:20.115Z,101409.22
2022-12-17T02:56:05.374Z,101411.00
2022-12-17T02:58:51.835Z,101416.03
2022-12-17T03:01:46.672Z,101408.00
2022-12-17T03:04:32.381Z,101410.47
2022-12-17T03:07:17.397Z,101415.50
2022-12-17T03:10:03.384Z,101421.28
2022-12-17T03:12:48.353Z,101413.22
2022-12-17T03:15:33.881Z,101407.41
2022-12-17T03:18:20.306Z,101413.56
2022-12-17T03:21:06.032Z,101418.47
2022-12-17T03:23:51.291Z,101409.25
2022-12-17T03:26:41.508Z,101413.03
2022-12-17T03:29:26.598Z,101416.38
2022-12-17T03:32:11.907Z,101413.44
2022-12-17T03:34:58.862Z,101410.94
2022-12-17T03:37:44.881Z,101410.44
2022-12-17T03:40:30.051Z,101411.06
2022-12-17T03:43:18.244Z,101413.06
2022-12-17T03:46:10.469Z,101411.06
2022-12-17T03:48:55.781Z,101413.47
2022-12-17T03:51:42.402Z,101415.16
2022-12-17T03:54:27.398Z,101421.84
2022-12-17T03:57:16.212Z,101421.75
2022-12-17T04:00:01.899Z,101415.34
2022-12-17T04:02:47.082Z,101409.06
2022-12-17T04:05:32.871Z,101422.69
2022-12-17T04:08:19.494Z,101420.78
2022-12-17T04:11:16.239Z,101412.53
2022-12-17T04:14:01.896Z,101415.16
2022-12-17T04:16:47.288Z,101416.41
2022-12-17T04:19:32.996Z,101414.94
2022-12-17T04:22:18.319Z,101424.56
2022-12-17T04:25:05.205Z,101421.63
2022-12-17T04:27:50.354Z,101425.22
2022-12-17T04:30:36.126Z,101433.88
2022-12-17T04:33:21.072Z,101432.22
2022-12-17T04:36:06.383Z,101429.81
2022-12-17T04:38:52.832Z,101435.44
2022-12-17T04:41:39.406Z,101439.88
2022-12-17T04:44:25.675Z,101443.22
2022-12-17T04:47:11.015Z,101454.13
2022-12-17T04:49:56.247Z,101448.03
2022-12-17T04:52:41.429Z,101453.28
2022-12-17T04:55:27.241Z,101447.00
2022-12-17T04:58:13.613Z,101452.47
2022-12-17T05:00:58.894Z,101453.06
2022-12-17T05:03:43.960Z,101461.38
2022-12-17T05:06:29.412Z,101465.25
2022-12-17T05:09:14.345Z,101461.66
2022-12-17T05:11:59.953Z,101460.63
2022-12-17T05:14:46.746Z,101463.56
2022-12-17T05:17:28.297Z,101467.13
2022-12-17T05:20:13.626Z,101463.34
2022-12-17T05:23:01.098Z,101470.16
2022-12-17T05:25:54.735Z,101468.59
2022-12-17T05:28:40.483Z,101470.47
2022-12-17T05:31:27.340Z,101477.72
2022-12-17T05:34:12.793Z,101479.28
2022-12-17T05:36:58.163Z,101475.94
2022-12-17T05:39:44.038Z,101474.25
2022-12-17T05:42:29.522Z,101483.41
2022-12-17T05:45:14.536Z,101484.72
2022-12-17T05:48:00.948Z,101486.22
2022-12-17T05:50:46.562Z,101491.66
2022-12-17T05:53:31.657Z,101491.66
2022-12-17T05:56:16.992Z,101500.88
2022-12-17T05:59:02.638Z,101493.34
2022-12-17T06:02:02.732Z,101503.84
2022-12-17T06:04:49.539Z,101505.50
2022-12-17T06:07:34.930Z,101506.53
2022-12-17T06:10:20.853Z,101505.09
2022-12-17T06:13:13.729Z,101506.13
2022-12-17T06:15:58.780Z,101505.94
2022-12-17T06:18:44.208Z,101509.28
2022-12-17T06:21:30.957Z,101499.19
2022-12-17T06:24:18.474Z,101513.78
2022-12-17T06:27:04.014Z,101514.09
2022-12-17T06:29:50.181Z,101520.19
2022-12-17T06:32:35.696Z,101523.75
2022-12-17T06:35:22.823Z,101523.00
2022-12-17T06:38:15.736Z,101527.63
2022-12-17T06:40:57.169Z,101531.09
2022-12-17T06:43:42.634Z,101538.19
2022-12-17T06:46:27.886Z,101531.91
2022-12-17T06:49:21.757Z,101536.88
2022-12-17T06:52:07.223Z,101539.78
2022-12-17T06:54:54.082Z,101532.22
2022-12-17T06:57:41.832Z,101540.94
2022-12-17T07:00:30.150Z,101543.44
2022-12-17T07:03:15.840Z,101549.22
2022-12-17T07:06:01.839Z,101549.72
2022-12-17T07:08:47.202Z,101552.28
2022-12-17T07:11:34.178Z,101557.53
2022-12-17T07:14:19.660Z,101553.41
2022-12-17T07:17:04.970Z,101555.09
2022-12-17T07:19:50.691Z,101561.50
2022-12-17T07:22:36.379Z,101568.72
2022-12-17T07:25:21.330Z,101567.78
2022-12-17T07:28:12.613Z,101577.63
2022-12-17T07:30:58.119Z,101587.41
2022-12-17T07:33:43.328Z,101583.63
2022-12-17T07:36:29.054Z,101581.44
2022-12-17T07:39:14.496Z,101582.25
2022-12-17T07:41:59.596Z,101591.81
2022-12-17T07:44:46.056Z,101591.69
2022-12-17T07:47:45.866Z,101590.88
2022-12-17T07:50:31.204Z,101602.00
2022-12-17T07:53:19.712Z,101607.03
2022-12-17T07:56:04.939Z,101612.06
2022-12-17T07:58:50.526Z,101616.34
2022-12-17T08:01:36.917Z,101614.78
2022-12-17T08:04:22.976Z,101624.03
2022-12-17T08:07:13.879Z,101619.50
2022-12-17T08:10:00.353Z,101630.44
2022-12-17T08:12:45.777Z,101635.47
2022-12-17T08:15:32.088Z,101636.63
2022-12-17T08:18:26.400Z,101631.56
2022-12-17T08:21:17.748Z,101634.53
2022-12-17T08:24:03.136Z,101640.41
2022-12-17T08:26:48.642Z,101636.41
2022-12-17T08:29:34.137Z,101638.72
2022-12-17T08:32:19.423Z,101646.50
2022-12-17T08:35:14.375Z,101640.94
2022-12-17T08:38:00.373Z,101654.22
2022-12-17T08:40:45.548Z,101656.00
2022-12-17T08:43:31.725Z,101647.94
2022-12-17T08:46:17.202Z,101654.38
2022-12-17T08:49:08.556Z,101661.41
2022-12-17T08:52:09.249Z,101668.09
2022-12-17T08:54:55.407Z,101653.31
2022-12-17T08:57:51.773Z,101652.16
2022-12-17T09:00:38.001Z,101667.25
2022-12-17T09:03:23.346Z,101663.28
2022-12-17T09:06:10.815Z,101662.44
2022-12-17T09:08:57.839Z,101662.34
2022-12-17T09:11:43.241Z,101665.78
2022-12-17T09:14:28.737Z,101675.88
2022-12-17T09:17:14.108Z,101673.59
2022-12-17T09:19:59.241Z,101674.53
2022-12-17T09:22:40.901Z,101675.69
2022-12-17T09:25:28.569Z,101680.81
2022-12-17T09:28:13.648Z,101690.91
2022-12-17T09:31:00.982Z,101701.81
2022-12-17T09:33:46.621Z,101698.88
2022-12-17T09:36:31.752Z,101694.34
2022-12-17T09:39:16.916Z,101692.66
2022-12-17T09:42:09.156Z,101693.78
2022-12-17T09:45:01.469Z,101699.75
2022-12-17T09:47:52.808Z,101698.09
2022-12-17T09:50:38.249Z,101701.41
2022-12-17T09:53:36.477Z,101705.63
2022-12-17T09:56:23.405Z,101704.81
2022-12-17T09:59:12.077Z,101708.16
2022-12-17T10:01:58.384Z,101707.56
2022-12-17T10:04:51.551Z,101710.22
2022-12-17T10:07:39.717Z,101708.13
2022-12-17T10:10:38.729Z,101704.84
2022-12-17T10:13:31.947Z,101708.00
2022-12-17T10:16:18.349Z,101711.81
2022-12-17T10:19:04.486Z,101716.19
2022-12-17T10:21:50.246Z,101710.34
2022-12-17T10:24:37.393Z,101708.63
2022-12-17T10:27:27.604Z,101716.84
2022-12-17T10:30:13.655Z,101713.69
2022-12-17T10:33:00.557Z,101709.91
2022-12-17T10:35:54.084Z,101711.91
2022-12-17T10:38:40.835Z,101718.22
2022-12-17T10:41:39.049Z,101718.09
2022-12-17T10:44:38.918Z,101710.00
2022-12-17T10:47:27.152Z,101711.06
2022-12-17T10:50:17.646Z,101703.59
2022-12-17T10:53:03.700Z,101707.72
2022-12-17T10:55:50.950Z,101711.69
2022-12-17T10:58:40.370Z,101714.72
2022-12-17T11:01:28.141Z,101709.88
2022-12-17T11:04:14.479Z,101718.41
2022-12-17T11:07:03.173Z,101721.63
2022-12-17T11:09:56.648Z,101716.38
2022-12-17T11:12:46.544Z,101716.19
2022-12-17T11:15:37.403Z,101724.19
2022-12-17T11:18:23.383Z,101715.81
2022-12-17T11:21:11.355Z,101716.59
2022-12-17T11:24:01.751Z,101717.63
2022-12-17T11:26:50.017Z,101714.75
2022-12-17T11:29:35.772Z,101723.13
2022-12-17T11:32:33.678Z,101718.75
2022-12-17T11:35:23.697Z,101717.09
2022-12-17T11:38:15.902Z,101728.91
2022-12-17T11:41:09.134Z,101735.81
2022-12-17T11:43:59.985Z,101732.38
2022-12-17T11:46:53.872Z,101728.53
2022-12-17T11:49:45.154Z,101731.09
2022-12-17T11:52:39.701Z,101740.13
2022-12-17T11:55:30.624Z,101730.03
2022-12-17T11:58:23.106Z,101739.09
2022-12-17T12:01:15.105Z,101735.31
2022-12-17T12:04:04.794Z,101730.69
2022-12-17T12:06:56.165Z,101734.91
2022-12-17T12:09:47.351Z,101742.56
2022-12-17T12:12:40.066Z,101741.00
2022-12-17T12:15:45.327Z,101737.13
2022-12-17T12:18:37.001Z,101746.31
2022-12-17T12:21:30.147Z,101736.44
2022-12-17T12:24:28.177Z,101745.91
2022-12-17T12:27:19.798Z,101733.38
2022-12-17T12:30:10.868Z,101734.41
2022-12-17T12:33:04.316Z,101732.59
2022-12-17T12:35:54.910Z,101722.03
2022-12-17T12:38:46.319Z,101723.91
2022-12-17T12:41:38.196Z,101729.97
2022-12-17T12:44:27.145Z,101729.66
2022-12-17T12:47:16.806Z,101726.00
2022-12-17T12:50:07.692Z,101738.22
2022-12-17T12:52:53.062Z,101726.66
2022-12-17T12:55:38.337Z,101720.59
2022-12-17T12:58:24.375Z,101722.28
2022-12-17T13:01:13.473Z,101720.94
2022-12-17T13:04:08.516Z,101718.47
2022-12-17T13:06:43.633Z,101716.22
2022-12-17T13:09:39.543Z,101714.56
2022-12-17T13:12:29.308Z,101713.09
2022-12-17T13:15:03.569Z,101713.94
2022-12-17T13:17:34.654Z,101708.47
2022-12-17T13:20:24.891Z,101712.09
2022-12-17T13:22:55.509Z,101711.91
2022-12-17T13:25:24.133Z,101704.09
2022-12-17T13:27:52.264Z,101694.06
2022-12-17T13:30:31.473Z,101691.56
2022-12-17T13:33:24.625Z,101699.94
2022-12-17T13:36:01.835Z,101698.66
2022-12-17T13:38:36.631Z,101705.41
2022-12-17T13:41:10.151Z,101703.97
2022-12-17T13:43:45.306Z,101705.03
2022-12-17T13:46:20.876Z,101705.03
2022-12-17T13:48:56.536Z,101716.56
2022-12-17T13:51:25.408Z,101713.00
2022-12-17T13:53:55.722Z,101712.78
2022-12-17T13:56:27.186Z,101713.44
2022-12-17T13:58:56.170Z,101707.16
2022-12-17T14:01:26.090Z,101708.41
2022-12-17T14:04:10.988Z,101711.28
2022-12-17T14:06:40.154Z,101711.59
2022-12-17T14:09:15.502Z,101716.84
2022-12-17T14:12:00.885Z,101725.03
2022-12-17T14:14:30.846Z,101718.63
2022-12-17T14:16:59.488Z,101721.44
2022-12-17T14:19:28.229Z,101720.53
2022-12-17T14:21:56.230Z,101721.03
2022-12-17T14:24:29.341Z,101719.16
2022-12-17T14:26:58.788Z,101724.94
2022-12-17T14:29:28.605Z,101726.28
2022-12-17T14:31:58.215Z,101731.75
2022-12-17T14:34:25.718Z,101745.41
2022-12-17T14:36:58.224Z,101747.34
2022-12-17T14:39:28.957Z,101743.88
2022-12-17T14:42:14.872Z,101740.72
2022-12-17T14:44:51.129Z,101736.63
2022-12-17T14:47:20.576Z,101746.53
2022-12-17T14:49:55.963Z,101748.22
2022-12-17T14:52:33.896Z,101743.00
2022-12-17T14:55:03.439Z,101744.47
2022-12-17T14:57:31.111Z,101744.53
2022-12-17T14:59:58.653Z,101744.03
2022-12-17T15:02:28.121Z,101736.00
2022-12-17T15:04:58.182Z,101741.00
2022-12-17T15:07:28.039Z,101742.06
2022-12-17T15:09:56.213Z,101746.19
2022-12-17T15:12:25.941Z,101745.16
2022-12-17T15:14:53.491Z,101746.00
2022-12-17T15:17:20.973Z,101750.97
2022-12-17T15:19:55.630Z,101742.19
2022-12-17T15:22:23.893Z,101745.09
2022-12-17T15:24:51.380Z,101747.56
2022-12-17T15:27:18.970Z,101740.34
2022-12-17T15:29:48.109Z,101745.53
2022-12-17T15:32:19.284Z,101752.78
2022-12-17T15:34:46.814Z,101752.66
2022-12-17T15:37:15.369Z,101745.72
2022-12-17T15:39:42.964Z,101749.47
2022-12-17T15:42:28.792Z,101754.25
2022-12-17T15:44:57.796Z,101755.25
2022-12-17T15:47:25.337Z,101760.88
2022-12-17T15:49:52.904Z,101768.53
2022-12-17T15:52:20.446Z,101762.09
2022-12-17T15:54:49.302Z,101762.19
2022-12-17T15:57:18.827Z,101768.34
2022-12-17T15:59:46.613Z,101771.84
2022-12-17T16:02:15.856Z,101769.28
2022-12-17T16:04:43.555Z,101767.06
2022-12-17T16:07:11.415Z,101763.22
2022-12-17T16:09:39.777Z,101760.41
2022-12-17T16:12:07.723Z,101764.91
2022-12-17T16:14:35.215Z,101765.19
2022-12-17T16:17:02.713Z,101772.47
2022-12-17T16:19:31.607Z,101767.06
2022-12-17T16:21:59.507Z,101769.66
2022-12-17T16:24:27.060Z,101771.84
2022-12-17T16:27:04.088Z,101770.41
2022-12-17T16:29:34.513Z,101780.25
2022-12-17T16:32:02.600Z,101782.09
2022-12-17T16:34:32.017Z,101792.13
2022-12-17T16:37:01.284Z,101787.06
2022-12-17T16:39:28.900Z,101795.38
2022-12-17T16:41:56.650Z,101802.47
2022-12-17T16:44:24.180Z,101807.44
2022-12-17T16:46:52.127Z,101809.94
2022-12-17T16:49:21.169Z,101810.13
2022-12-17T16:51:54.034Z,101804.31
2022-12-17T16:54:23.985Z,101800.50
2022-12-17T16:56:51.549Z,101802.94
2022-12-17T16:59:19.717Z,101804.88
2022-12-17T17:01:48.998Z,101804.72
2022-12-17T17:04:18.356Z,101814.44
2022-12-17T17:06:47.946Z,101814.72
2022-12-17T17:09:17.663Z,101811.25
2022-12-17T17:11:51.126Z,101813.19
2022-12-17T17:14:19.629Z,101829.41
2022-12-17T17:16:47.237Z,101832.22
2022-12-17T17:19:15.057Z,101833.28
2022-12-17T17:21:43.949Z,101834.03
2022-12-17T17:24:20.383Z,101838.00
2022-12-17T17:26:51.932Z,101837.69
2022-12-17T17:29:20.299Z,101830.78
2022-12-17T17:34:35.941Z,101833.88
2022-12-17T17:37:03.512Z,101838.94
2022-12-17T17:39:33.021Z,101837.53
2022-12-17T17:42:02.200Z,101835.44
2022-12-17T17:44:29.703Z,101834.25
2022-12-17T17:46:57.524Z,101839.22
2022-12-17T17:49:26.060Z,101840.34
2022-12-17T17:52:10.859Z,101841.09
2022-12-17T17:54:40.338Z,101844.91
2022-12-17T17:57:10.059Z,101847.09
2022-12-17T17:59:39.146Z,101850.13
2022-12-17T18:02:06.842Z,101857.06
2022-12-17T18:04:34.443Z,101852.91
2022-12-17T18:07:24.125Z,101847.69
2022-12-17T18:09:50.177Z,101846.34
2022-12-17T18:12:36.811Z,101846.03
2022-12-17T18:15:14.340Z,101848.22
2022-12-17T18:17:43.624Z,101851.88
2022-12-17T18:20:12.115Z,101852.06
2022-12-17T18:22:39.844Z,101848.78
2022-12-17T18:25:07.989Z,101846.59
2022-12-17T18:27:41.122Z,101839.94
2022-12-17T18:30:09.906Z,101842.28
2022-12-17T18:32:37.409Z,101841.44
2022-12-17T18:35:06.777Z,101844.84
2022-12-17T18:37:34.426Z,101846.34
2022-12-17T18:40:02.141Z,101842.06
2022-12-17T18:42:47.265Z,101860.44
2022-12-17T18:45:17.097Z,101864.06
2022-12-17T18:47:45.049Z,101860.44
2022-12-17T18:50:13.087Z,101854.28
2022-12-17T18:52:40.666Z,101859.25
2022-12-17T18:55:08.580Z,101858.22
2022-12-17T18:57:37.002Z,101872.97
2022-12-17T19:00:05.951Z,101872.84
2022-12-17T19:02:36.375Z,101873.72
2022-12-17T19:05:04.219Z,101879.66
2022-12-17T19:07:31.849Z,101872.56
2022-12-17T19:09:59.634Z,101881.00
2022-12-17T19:12:27.376Z,101885.88
2022-12-17T19:14:55.650Z,101891.34
2022-12-17T19:17:24.142Z,101895.81
2022-12-17T19:19:53.785Z,101889.22
2022-12-17T19:22:22.234Z,101888.53
2022-12-17T19:24:49.760Z,101888.88
2022-12-17T19:27:17.364Z,101883.97
2022-12-17T19:29:49.144Z,101886.56
2022-12-17T19:32:17.320Z,101882.81
2022-12-17T19:34:45.037Z,101882.44
2022-12-17T19:37:14.027Z,101895.91
2022-12-17T19:39:42.354Z,101889.44
2022-12-17T19:42:24.595Z,101907.09
2022-12-17T19:44:54.919Z,101913.56
2022-12-17T19:47:23.420Z,101900.06
2022-12-17T19:49:51.031Z,101901.59
2022-12-17T19:52:19.869Z,101902.81
2022-12-17T19:54:47.337Z,101913.38
2022-12-17T19:57:15.409Z,101918.03
2022-12-17T19:59:43.837Z,101910.66
2022-12-17T20:02:11.845Z,101903.91
2022-12-17T20:04:39.536Z,101915.84
2022-12-17T20:07:08.162Z,101922.50
2022-12-17T20:09:37.218Z,101916.22
2022-12-17T20:12:05.037Z,101914.03
2022-12-17T20:14:38.173Z,101920.16
2022-12-17T20:17:06.522Z,101912.31
2022-12-17T20:19:34.891Z,101916.03
2022-12-17T20:22:04.387Z,101922.38
2022-12-17T20:24:32.474Z,101914.72
2022-12-17T20:27:02.061Z,101919.16
2022-12-17T20:29:29.892Z,101911.09
2022-12-17T20:31:57.649Z,101915.78
2022-12-17T20:34:26.261Z,101926.06
2022-12-17T20:36:54.598Z,101927.50
2022-12-17T20:39:27.150Z,101930.66
2022-12-17T20:41:55.828Z,101933.97
2022-12-17T20:44:24.784Z,101936.72
2022-12-17T20:46:52.330Z,101932.97
2022-12-17T20:49:20.101Z,101936.19
2022-12-17T20:51:47.661Z,101932.72
2022-12-17T20:54:15.166Z,101931.50
2022-12-17T20:56:42.836Z,101929.78
2022-12-17T20:59:15.791Z,101932.78
2022-12-17T21:01:45.578Z,101930.78
2022-12-17T21:04:13.893Z,101928.91
2022-12-17T21:06:43.325Z,101921.94
2022-12-17T21:09:11.651Z,101916.47
2022-12-17T21:11:40.903Z,101912.72
2022-12-17T21:14:10.664Z,101917.84
2022-12-17T21:16:39.983Z,101921.97
2022-12-17T21:19:10.822Z,101926.56
2022-12-17T21:21:38.885Z,101930.69
2022-12-17T21:24:07.211Z,101939.13
2022-12-17T21:26:37.091Z,101935.53
2022-12-17T21:29:06.732Z,101939.97
2022-12-17T21:31:35.721Z,101936.03
2022-12-17T21:34:04.763Z,101937.19
2022-12-17T21:36:34.967Z,101944.38
2022-12-17T21:39:02.832Z,101951.53
2022-12-17T21:41:39.359Z,101947.78
2022-12-17T21:44:13.557Z,101953.00
2022-12-17T21:46:43.387Z,101940.44
2022-12-17T21:49:14.274Z,101949.03
2022-12-17T21:51:44.263Z,101949.47
2022-12-17T21:54:17.311Z,101949.78
2022-12-17T21:56:47.357Z,101954.59
2022-12-17T21:59:15.468Z,101952.66
2022-12-17T22:01:43.276Z,101956.31
2022-12-17T22:04:11.261Z,101963.78
2022-12-17T22:06:41.348Z,101963.06
2022-12-17T22:09:33.114Z,101963.66
2022-12-17T22:12:16.038Z,101970.84
2022-12-17T22:14:43.868Z,101974.53
2022-12-17T22:17:11.745Z,101970.38
2022-12-17T22:19:39.481Z,101971.09
2022-12-17T22:22:06.960Z,101978.03
2022-12-17T22:24:36.650Z,101972.31
2022-12-17T22:27:09.404Z,101960.88
2022-12-17T22:29:55.376Z,101959.06
2022-12-17T22:32:40.665Z,101962.13
2022-12-17T22:36:22.052Z,101961.72
2022-12-17T22:40:03.268Z,101970.88
2022-12-17T22:44:29.801Z,101972.63
2022-12-17T22:44:46.141Z,101975.09
2022-12-17T22:46:22.083Z,101975.44
2022-12-17T22:48:49.707Z,101969.69
2022-12-17T22:51:21.985Z,101967.47
2022-12-17T22:53:58.401Z,101971.59
2022-12-17T22:57:09.403Z,101962.78
2022-12-17T22:59:16.713Z,101962.91
2022-12-17T23:01:44.774Z,101974.66
2022-12-17T23:04:13.941Z,101971.72
2022-12-17T23:06:41.921Z,101985.25
2022-12-17T23:09:10.439Z,101986.09
2022-12-17T23:11:39.503Z,101993.44
2022-12-17T23:14:08.933Z,101979.00
2022-12-17T23:16:38.945Z,101973.09
2022-12-17T23:19:07.038Z,101975.72
2022-12-17T23:21:35.308Z,101985.22
2022-12-17T23:24:03.195Z,101985.31
2022-12-17T23:26:33.028Z,101972.16
2022-12-17T23:29:03.840Z,101974.25
2022-12-17T23:31:34.780Z,101973.31
2022-12-17T23:34:02.379Z,101966.00
2022-12-17T23:36:31.087Z,101968.66
2022-12-17T23:38:59.010Z,101974.88
2022-12-17T23:41:28.785Z,101976.63
2022-12-17T23:43:57.198Z,101983.69
2022-12-17T23:46:28.236Z,101981.53
2022-12-17T23:48:56.040Z,101988.34
2022-12-17T23:51:24.441Z,101979.88
2022-12-17T23:53:53.238Z,101978.25
2022-12-17T23:56:23.533Z,101980.28
2022-12-17T23:58:53.490Z,101984.72
